Time;durP1;ratioP1;P1;durP2;ratioP2;P2;SDS_P1;SDS_P2;PMS_P1;PMS_P2;Temp;Humidity;BMP_temperature;BMP_pressure;BME280_temperature;BME280_humidity;BME280_pressure;Samples;Min_cycle;Max_cycle;Signal;HPM_P1;HPM_P2
2022/02/01 00:03:53;;;;;;;;;6.00;5.00;;;;;17.16;60.25;102535.31;4992348;28;45716;-59
2022/02/01 00:06:36;;;;;;;;;4.25;4.25;;;;;17.15;60.27;102522.84;4992603;28;45552;-59
2022/02/01 00:19:43;;;;;;;;;6.00;4.00;;;;;17.12;59.94;102507.78;4953944;28;45588;-58
2022/02/01 00:33:30;;;;;;;;;5.50;5.50;;;;;17.08;60.25;102507.06;4985750;28;45452;-59
2022/02/01 00:36:03;;;;;;;;;5.00;4.00;;;;;17.07;60.54;102499.09;4988439;28;45408;-59
2022/02/01 00:41:04;;;;;;;;;3.50;3.50;;;;;17.05;60.32;102496.50;4990509;28;45463;-58
2022/02/01 00:43:31;;;;;;;;;6.50;4.00;;;;;17.05;60.42;102504.53;5005229;28;45529;-59
2022/02/01 00:46:00;;;;;;;;;3.00;3.00;;;;;17.05;60.40;102509.91;4989782;28;45310;-59
2022/02/01 00:48:25;;;;;;;;;5.25;4.00;;;;;17.05;60.36;102523.31;4995346;28;45655;-59
2022/02/01 00:50:50;;;;;;;;;5.00;5.00;;;;;17.03;60.26;102517.16;5014759;28;46160;-58
2022/02/01 00:53:16;;;;;;;;;6.25;6.25;;;;;17.05;60.43;102525.16;5032816;28;45841;-59
2022/02/01 00:55:41;;;;;;;;;8.00;6.00;;;;;17.04;60.61;102529.66;5036330;28;45471;-59
2022/02/01 00:58:06;;;;;;;;;4.75;4.00;;;;;17.03;60.55;102518.97;5030938;28;45463;-59
2022/02/01 01:00:32;;;;;;;;;6.75;5.00;;;;;17.03;60.29;102527.00;5030973;28;46603;-59
2022/02/01 01:02:57;;;;;;;;;4.75;4.25;;;;;17.02;60.38;102531.53;5035137;28;45354;-59
2022/02/01 01:05:22;;;;;;;;;7.75;4.50;;;;;17.02;60.46;102547.63;5034037;28;45886;-59
2022/02/01 01:07:48;;;;;;;;;7.75;5.50;;;;;17.03;60.36;102551.16;5035022;28;45451;-59
2022/02/01 01:10:13;;;;;;;;;5.50;5.50;;;;;17.00;60.18;102552.19;5037428;28;46538;-58
2022/02/01 01:12:51;;;;;;;;;6.75;5.00;;;;;17.01;60.47;102545.00;5036253;28;45422;-59
2022/02/01 01:15:21;;;;;;;;;5.75;5.00;;;;;16.99;60.37;102543.28;5045327;28;45474;-59
2022/02/01 01:45:01;;;;;;;;;4.00;4.00;;;;;16.94;60.61;102518.53;5034540;28;45374;-59
2022/02/01 01:53:11;;;;;;;;;7.00;7.00;;;;;16.93;60.36;102523.97;5031485;28;45777;-59
2022/02/01 01:55:38;;;;;;;;;7.50;5.00;;;;;16.92;60.40;102517.72;5046056;28;45360;-59
2022/02/01 01:58:05;;;;;;;;;6.00;6.00;;;;;16.92;60.36;102515.03;5030390;28;45410;-58
2022/02/01 02:03:12;;;;;;;;;4.50;2.50;;;;;16.92;60.39;102527.59;5030391;28;45482;-59
2022/02/01 02:05:37;;;;;;;;;3.25;3.25;;;;;16.90;60.40;102519.63;5034026;28;45521;-58
2022/02/01 02:08:03;;;;;;;;;5.50;3.75;;;;;16.91;60.63;102517.78;5029978;28;52340;-58
2022/02/01 02:10:33;;;;;;;;;4.50;4.50;;;;;16.89;60.44;102498.25;5038560;28;45516;-58
2022/02/01 02:14:17;;;;;;;;;4.50;4.50;;;;;16.89;60.50;102509.84;5036044;28;46254;-59
2022/02/01 02:16:01;;;;;;;;;5.50;5.50;;;;;16.90;60.60;102513.38;5035359;28;45600;-58
2022/02/01 02:18:29;;;;;;;;;4.25;4.25;;;;;16.88;60.44;102516.16;5034576;28;45881;-59
2022/02/01 02:20:56;;;;;;;;;6.00;4.25;;;;;16.88;60.35;102529.56;5034118;28;45435;-59
2022/02/01 02:23:22;;;;;;;;;4.00;4.00;;;;;16.88;60.36;102513.47;5032072;28;45634;-59
2022/02/01 02:25:48;;;;;;;;;5.00;3.50;;;;;16.88;60.42;102510.78;5033799;28;45424;-59
2022/02/01 02:28:15;;;;;;;;;3.50;3.50;;;;;16.87;60.13;102514.41;5029475;28;45439;-59
2022/02/01 02:30:43;;;;;;;;;5.75;4.25;;;;;16.87;60.38;102519.78;5034193;28;45789;-59
2022/02/01 02:33:11;;;;;;;;;7.00;4.50;;;;;16.86;60.17;102531.47;5033871;28;47455;-59
2022/02/01 02:36:04;;;;;;;;;5.50;5.00;;;;;16.85;60.54;102519.84;5031717;28;45437;-59
2022/02/01 02:39:19;;;;;;;;;5.25;5.00;;;;;16.86;60.50;102510.00;5033343;28;45403;-59
2022/02/01 02:46:30;;;;;;;;;4.75;4.75;;;;;16.85;60.32;102502.91;5049779;28;45484;-59
2022/02/01 02:48:55;;;;;;;;;3.50;3.50;;;;;16.84;60.55;102506.56;5034401;28;45436;-59
2022/02/01 02:51:21;;;;;;;;;5.50;5.50;;;;;16.82;60.15;102506.63;5033866;28;45659;-59
2022/02/01 02:53:47;;;;;;;;;3.50;3.50;;;;;16.82;60.46;102506.63;5033655;28;45471;-59
2022/02/01 02:56:13;;;;;;;;;5.00;3.25;;;;;16.81;60.49;102498.66;5029225;28;45351;-58
2022/02/01 02:58:38;;;;;;;;;4.00;4.00;;;;;16.81;60.39;102491.50;5034803;28;45677;-59
2022/02/01 03:01:04;;;;;;;;;4.25;3.00;;;;;16.81;60.14;102471.84;5033181;28;45419;-58
2022/02/01 03:03:29;;;;;;;;;5.75;4.00;;;;;16.81;60.47;102462.00;5029991;28;46799;-58
2022/02/01 03:05:55;;;;;;;;;2.75;2.75;;;;;16.82;60.33;102447.63;5033943;28;45777;-59
2022/02/01 03:08:22;;;;;;;;;5.75;4.00;;;;;16.81;60.30;102450.38;5031750;28;45363;-59
2022/02/01 03:10:48;;;;;;;;;6.00;4.00;;;;;16.81;60.25;102462.00;5034154;28;45431;-59
2022/02/01 03:13:23;;;;;;;;;3.00;3.00;;;;;16.82;60.34;102461.03;5035376;28;46544;-59
2022/02/01 03:15:55;;;;;;;;;5.00;3.50;;;;;16.80;60.29;102462.06;5033761;28;45517;-59
2022/02/01 03:21:05;;;;;;;;;4.25;3.75;;;;;16.80;60.58;102470.97;5033442;28;45447;-59
2022/02/01 03:23:30;;;;;;;;;4.75;4.75;;;;;16.79;60.51;102455.81;5027622;28;46123;-58
2022/02/01 03:25:55;;;;;;;;;4.00;4.00;;;;;16.79;59.93;102444.22;5032821;28;45449;-58
2022/02/01 03:28:21;;;;;;;;;3.00;3.00;;;;;16.78;60.10;102443.38;5037775;28;45677;-58
2022/02/01 03:30:46;;;;;;;;;3.00;3.00;;;;;16.78;60.23;102439.81;5033771;28;45357;-58
2022/02/01 03:33:11;;;;;;;;;3.75;3.75;;;;;16.78;60.54;102445.16;5033354;28;46337;-59
2022/02/01 03:35:37;;;;;;;;;4.75;3.00;;;;;16.76;60.55;102442.56;5027978;28;45345;-59
2022/02/01 03:38:02;;;;;;;;;3.25;3.25;;;;;16.76;60.27;102444.41;5049287;28;45473;-58
2022/02/01 03:40:29;;;;;;;;;4.00;3.50;;;;;16.75;60.34;102448.88;5053087;28;45332;-59
2022/02/01 03:42:54;;;;;;;;;4.25;4.25;;;;;16.75;60.23;102456.94;5042363;28;45526;-59
2022/02/01 03:45:20;;;;;;;;;3.50;3.50;;;;;16.75;60.26;102448.88;5042151;28;45491;-59
2022/02/01 03:47:45;;;;;;;;;3.75;3.75;;;;;16.73;60.31;102448.97;5036808;28;45710;-59
2022/02/01 03:50:10;;;;;;;;;4.50;4.50;;;;;16.75;60.39;102462.28;5033470;28;45536;-59
2022/02/01 03:52:36;;;;;;;;;2.00;2.00;;;;;16.74;60.47;102463.25;5039025;28;46458;-58
2022/02/01 03:55:02;;;;;;;;;1.50;1.50;;;;;16.74;60.40;102460.56;5034802;28;45509;-59
2022/02/01 03:57:27;;;;;;;;;3.25;3.25;;;;;16.75;60.23;102456.09;5035382;28;45328;-58
2022/02/01 03:59:53;;;;;;;;;2.00;2.00;;;;;16.74;60.24;102449.84;5036511;28;45512;-59
2022/02/01 04:02:18;;;;;;;;;4.75;4.75;;;;;16.74;60.22;102433.75;5034007;28;46660;-59
2022/02/01 04:04:47;;;;;;;;;5.25;3.50;;;;;16.73;60.55;102422.16;5037047;28;46238;-59
2022/02/01 04:07:12;;;;;;;;;4.25;3.00;;;;;16.73;60.21;102437.38;5037894;28;45506;-58
2022/02/01 04:09:37;;;;;;;;;4.00;4.00;;;;;16.72;60.32;102431.16;5035687;28;45489;-59
2022/02/01 04:12:05;;;;;;;;;3.00;3.00;;;;;16.72;60.37;102415.06;5035980;28;45993;-59
2022/02/01 04:14:33;;;;;;;;;5.75;3.00;;;;;16.72;60.32;102425.78;5035864;28;45837;-59
2022/02/01 04:17:01;;;;;;;;;3.50;3.50;;;;;16.72;60.19;102432.97;5033093;28;45384;-59
2022/02/01 04:19:29;;;;;;;;;3.25;3.25;;;;;16.71;60.52;102426.75;5040151;28;45453;-59
2022/02/01 04:22:02;;;;;;;;;3.25;3.25;;;;;16.70;60.17;102424.13;5035664;28;46201;-58
2022/02/01 04:24:33;;;;;;;;;4.25;3.00;;;;;16.71;60.63;102426.75;5034763;28;45575;-59
2022/02/01 04:26:59;;;;;;;;;3.00;2.75;;;;;16.70;60.27;102430.38;5032509;28;45851;-58
2022/02/01 04:29:25;;;;;;;;;6.00;4.00;;;;;16.69;60.46;102419.72;5036906;28;45557;-59
2022/02/01 04:31:51;;;;;;;;;6.50;3.75;;;;;16.68;60.10;102421.53;5033851;28;47218;-58
2022/02/01 04:34:16;;;;;;;;;3.25;3.25;;;;;16.67;60.22;102406.41;5038131;28;45450;-58
2022/02/01 04:36:41;;;;;;;;;3.75;3.75;;;;;16.67;60.30;102417.13;5043015;28;45488;-59
2022/02/01 04:39:07;;;;;;;;;1.50;1.50;;;;;16.66;60.29;102414.53;5042586;28;45607;-59
2022/02/01 04:41:33;;;;;;;;;4.00;3.00;;;;;16.66;60.20;102428.81;5035272;28;45377;-59
2022/02/01 04:43:59;;;;;;;;;3.00;3.00;;;;;16.67;60.41;102427.00;5032851;28;53803;-59
2022/02/01 04:46:25;;;;;;;;;3.25;2.00;;;;;16.65;60.18;102436.91;5039026;28;45375;-59
2022/02/01 04:48:52;;;;;;;;;2.50;2.50;;;;;16.66;60.75;102425.25;5037760;28;45269;-59
2022/02/01 04:51:18;;;;;;;;;2.50;2.50;;;;;16.66;60.37;102431.47;5035332;28;46068;-59
2022/02/01 04:53:45;;;;;;;;;2.75;2.75;;;;;16.64;60.08;102417.28;5035298;28;45735;-59
2022/02/01 04:56:10;;;;;;;;;2.25;2.25;;;;;16.65;60.31;102420.84;5023584;28;45488;-59
2022/02/01 04:58:36;;;;;;;;;3.75;3.75;;;;;16.64;60.32;102414.59;5037870;28;45511;-59
2022/02/01 05:01:01;;;;;;;;;3.50;3.00;;;;;16.64;60.25;102408.38;5036679;28;46077;-59
2022/02/01 05:03:27;;;;;;;;;5.00;4.25;;;;;16.63;60.44;102402.13;5036804;28;45384;-59
2022/02/01 05:05:52;;;;;;;;;5.00;2.75;;;;;16.63;60.25;102401.28;5035771;28;45916;-59
2022/02/01 05:08:18;;;;;;;;;6.00;4.50;;;;;16.64;60.18;102387.78;5032909;28;45615;-59
2022/02/01 05:10:44;;;;;;;;;3.00;3.00;;;;;16.64;60.43;102390.47;5020622;28;46553;-59
2022/02/01 05:16:10;;;;;;;;;5.00;3.75;;;;;16.63;60.50;102382.53;5035577;28;45534;-58
2022/02/01 05:19:03;;;;;;;;;3.00;3.00;;;;;16.62;60.26;102388.81;5035152;28;45663;-59
2022/02/01 05:21:25;;;;;;;;;3.00;3.00;;;;;16.62;60.50;102387.00;5029957;28;45395;-58
2022/02/01 05:23:52;;;;;;;;;1.75;1.75;;;;;16.62;60.35;102396.84;5030548;28;45758;-58
2022/02/01 05:26:19;;;;;;;;;2.00;2.00;;;;;16.62;60.23;102402.22;5031084;28;45491;-59
2022/02/01 05:28:44;;;;;;;;;2.50;2.50;;;;;16.60;60.30;102402.31;5034697;28;45495;-58
2022/02/01 05:31:10;;;;;;;;;3.25;2.25;;;;;16.60;60.52;102411.22;5034861;28;46434;-58
2022/02/01 05:33:36;;;;;;;;;4.75;3.50;;;;;16.61;60.29;102422.81;5040442;28;46047;-58
2022/02/01 05:36:04;;;;;;;;;2.75;2.75;;;;;16.60;60.44;102408.53;5033270;28;45501;-59
2022/02/01 05:38:30;;;;;;;;;3.25;3.25;;;;;16.60;60.47;102403.16;5033994;28;48367;-58
2022/02/01 05:40:55;;;;;;;;;2.00;2.00;;;;;16.60;60.23;102408.53;5032567;28;45559;-59
2022/02/01 05:43:24;;;;;;;;;2.25;2.00;;;;;16.59;60.44;102412.16;5037111;28;45326;-58
2022/02/01 05:45:51;;;;;;;;;2.75;2.75;;;;;16.60;60.42;102411.22;5034738;28;45326;-59
2022/02/01 05:48:17;;;;;;;;;2.25;2.25;;;;;16.60;60.40;102416.56;5034599;28;45651;-59
2022/02/01 05:50:43;;;;;;;;;2.50;2.25;;;;;16.60;60.44;102408.53;5034947;28;46236;-58
2022/02/01 05:53:09;;;;;;;;;2.75;2.75;;;;;16.62;60.72;102394.19;5027134;28;45521;-59
2022/02/01 05:55:35;;;;;;;;;1.50;1.50;;;;;16.64;60.39;102379.75;5037803;28;45584;-59
2022/02/01 05:58:02;;;;;;;;;3.50;3.50;;;;;16.68;60.56;102383.16;5034734;28;45691;-60
2022/02/01 06:00:27;;;;;;;;;3.00;2.00;;;;;16.71;60.62;102385.63;5035456;28;46287;-59
2022/02/01 06:02:53;;;;;;;;;3.00;3.00;;;;;16.76;60.65;102380.03;5043184;28;45611;-60
2022/02/01 06:05:19;;;;;;;;;3.50;2.00;;;;;16.79;60.60;102386.09;5031827;28;45414;-60
2022/02/01 06:07:45;;;;;;;;;2.75;2.75;;;;;16.84;60.81;102377.81;5035258;28;45408;-60
2022/02/01 06:10:11;;;;;;;;;2.00;2.00;;;;;16.88;61.05;102368.63;5038216;28;46380;-60
2022/02/01 06:12:44;;;;;;;;;2.75;2.00;;;;;16.94;60.77;102351.34;5035441;28;45636;-57
2022/02/01 06:15:11;;;;;;;;;1.00;1.00;;;;;17.01;60.76;102346.50;5041510;28;45337;-57
2022/02/01 06:17:37;;;;;;;;;2.25;2.25;;;;;17.09;61.06;102353.19;5030827;28;45530;-59
2022/02/01 06:20:04;;;;;;;;;3.50;3.50;;;;;17.17;60.87;102351.91;5022860;28;46423;-58
2022/02/01 06:22:29;;;;;;;;;5.00;3.75;;;;;17.24;60.93;102359.53;5034526;28;45603;-58
2022/02/01 06:24:56;;;;;;;;;2.00;2.00;;;;;17.31;60.90;102353.78;5035362;28;45413;-58
2022/02/01 06:27:22;;;;;;;;;3.25;2.00;;;;;17.40;61.10;102350.59;5034073;28;45575;-58
2022/02/01 06:29:47;;;;;;;;;1.50;1.50;;;;;17.47;60.59;102351.97;5026289;28;45602;-58
2022/02/01 06:32:13;;;;;;;;;2.50;2.00;;;;;17.52;60.81;102331.09;5030839;28;53572;-58
2022/02/01 06:34:38;;;;;;;;;3.75;2.75;;;;;17.58;61.40;102340.59;5033536;28;45373;-58
2022/02/01 06:37:04;;;;;;;;;6.50;3.00;;;;;17.61;60.39;102358.34;5035246;28;45472;-58
2022/02/01 06:39:29;;;;;;;;;1.00;1.00;;;;;17.63;60.45;102353.75;5034328;28;46433;-58
2022/02/01 06:41:55;;;;;;;;;2.67;2.33;;;;;17.70;60.44;102351.59;5034068;28;47764;-58
2022/02/01 06:44:21;;;;;;;;;3.00;3.00;;;;;17.71;60.41;102359.56;5022596;28;45783;-58
2022/02/01 06:46:46;;;;;;;;;4.25;2.75;;;;;17.74;60.41;102353.13;5029849;28;45383;-58
2022/02/01 06:49:11;;;;;;;;;4.00;2.00;;;;;17.72;60.25;102338.91;5028253;28;58600;-58
2022/02/01 06:51:42;;;;;;;;;1.50;1.50;;;;;17.77;59.88;102358.31;5027471;28;45506;-58
2022/02/01 06:54:08;;;;;;;;;4.33;3.00;;;;;17.81;59.96;102367.06;5027498;28;45405;-58
2022/02/01 06:56:34;;;;;;;;;3.00;3.00;;;;;17.82;60.34;102356.22;5035084;28;45319;-58
2022/02/01 06:59:06;;;;;;;;;3.00;3.00;;;;;17.82;59.75;102355.38;5033107;28;45896;-58
2022/02/01 07:01:33;;;;;;;;;2.00;2.00;;;;;17.84;60.00;102358.81;5028439;28;45539;-59
2022/02/01 07:03:58;;;;;;;;;4.75;3.00;;;;;17.86;60.19;102359.59;5031598;28;45628;-58
2022/02/01 07:06:25;;;;;;;;;2.00;2.00;;;;;17.87;59.80;102372.06;5033610;28;45404;-58
2022/02/01 07:08:52;;;;;;;;;2.50;2.50;;;;;17.88;59.67;102363.03;5031613;28;45729;-58
2022/02/01 07:11:19;;;;;;;;;5.50;2.75;;;;;17.88;60.01;102363.03;5037955;28;46419;-58
2022/02/01 07:13:47;;;;;;;;;4.00;3.00;;;;;17.88;60.10;102361.25;5037321;28;45459;-58
2022/02/01 07:16:14;;;;;;;;;4.00;4.00;;;;;17.87;59.81;102359.47;5051555;28;45538;-58
2022/02/01 07:18:40;;;;;;;;;5.67;5.67;;;;;17.89;60.17;102373.72;5038747;28;55296;-58
2022/02/01 07:21:05;;;;;;;;;4.00;4.00;;;;;17.88;59.61;102371.97;5036346;28;45423;-58
2022/02/01 07:23:32;;;;;;;;;3.75;3.00;;;;;17.88;59.89;102373.78;5042998;28;45507;-58
2022/02/01 07:25:57;;;;;;;;;3.50;3.50;;;;;17.88;59.75;102363.94;5034319;28;50815;-58
2022/02/01 07:28:26;;;;;;;;;2.75;2.50;;;;;17.90;59.81;102364.69;5039398;28;45994;-58
2022/02/01 07:30:53;;;;;;;;;4.25;3.00;;;;;17.92;59.82;102351.16;5040731;28;45445;-58
2022/02/01 07:33:18;;;;;;;;;7.50;5.75;;;;;17.95;59.13;102355.50;5036355;28;45397;-58
2022/02/01 07:35:46;;;;;;;;;9.25;6.75;;;;;17.97;59.91;102361.63;5037751;28;45630;-57
2022/02/01 07:38:16;;;;;;;;;10.25;5.75;;;;;18.00;59.68;102366.81;5034044;28;46069;-58
2022/02/01 07:40:41;;;;;;;;;11.00;7.00;;;;;18.03;60.05;102363.97;5043835;28;45364;-58
2022/02/01 07:43:07;;;;;;;;;9.00;6.75;;;;;18.07;60.09;102370.00;5039123;28;45374;-58
2022/02/01 07:45:32;;;;;;;;;10.00;9.00;;;;;18.10;60.19;102367.19;5042151;28;45650;-58
2022/02/01 07:48:03;;;;;;;;;9.50;6.50;;;;;18.13;59.86;102358.91;5035816;28;45464;-58
2022/02/01 07:50:29;;;;;;;;;10.50;5.25;;;;;18.13;60.02;102354.41;5030651;28;45590;-58
2022/02/01 07:52:55;;;;;;;;;11.00;6.50;;;;;18.14;60.34;102344.50;5031072;28;45474;-58
2022/02/01 07:55:20;;;;;;;;;10.50;7.00;;;;;18.15;60.17;102339.06;5027373;28;45852;-58
2022/02/01 07:57:46;;;;;;;;;15.00;10.00;;;;;18.14;59.88;102342.72;5033997;28;47219;-59
2022/02/01 08:00:46;;;;;;;;;8.00;6.25;;;;;18.13;60.25;102340.09;5100856;27;45491;-57
2022/02/01 08:03:12;;;;;;;;;11.67;6.00;;;;;18.12;59.60;102327.63;5087731;27;45520;-58
2022/02/01 08:05:39;;;;;;;;;10.00;5.50;;;;;18.09;59.68;102325.13;5086101;27;45529;-59
2022/02/01 08:08:04;;;;;;;;;7.00;6.33;;;;;18.04;59.59;102318.16;5084636;27;48284;-58
2022/02/01 08:10:39;;;;;;;;;4.67;3.67;;;;;18.02;59.32;102317.41;5089064;27;45957;-58
2022/02/01 08:18:35;;;;;;;;;17.25;7.50;;;;;17.94;60.10;102314.31;5060936;27;66242;-59
2022/02/01 08:21:04;;;;;;;;;14.50;8.50;;;;;17.91;60.18;102303.78;5053748;28;47034;-58
2022/02/01 08:23:30;;;;;;;;;14.00;9.25;;;;;17.89;60.56;102295.81;5056820;28;45546;-58
2022/02/01 08:25:57;;;;;;;;;8.50;7.00;;;;;17.89;60.48;102289.56;5067118;28;45423;-57
2022/02/01 08:28:23;;;;;;;;;12.50;5.00;;;;;17.87;60.39;102292.31;5059999;27;45454;-59
2022/02/01 08:30:50;;;;;;;;;9.50;6.75;;;;;17.86;60.47;102287.06;5056623;28;45449;-58
2022/02/01 08:33:15;;;;;;;;;17.25;9.50;;;;;17.85;60.79;102282.63;5058544;27;45428;-58
2022/02/01 08:35:42;;;;;;;;;11.00;9.25;;;;;17.85;60.95;102285.31;5054148;28;45498;-57
2022/02/01 08:38:08;;;;;;;;;16.75;9.75;;;;;17.87;60.60;102283.44;5068741;28;45494;-58
2022/02/01 08:40:33;;;;;;;;;21.25;9.75;;;;;17.85;60.63;102271.88;5050616;28;45336;-58
2022/02/01 08:42:59;;;;;;;;;14.75;7.75;;;;;17.85;61.05;102278.13;5063902;28;45544;-59
2022/02/01 08:45:25;;;;;;;;;15.75;10.25;;;;;17.87;60.62;102280.75;5059877;27;45403;-59
2022/02/01 08:47:53;;;;;;;;;18.75;11.50;;;;;17.87;61.15;102278.91;5064113;28;45487;-59
2022/02/01 08:50:25;;;;;;;;;12.50;10.75;;;;;17.89;61.14;102262.69;5054652;27;45727;-59
2022/02/01 08:52:53;;;;;;;;;14.50;12.00;;;;;17.90;61.12;102267.09;5057919;28;45756;-59
2022/02/01 08:55:32;;;;;;;;;15.75;10.00;;;;;17.90;61.20;102269.78;5068826;27;45627;-59
2022/02/01 08:57:58;;;;;;;;;12.25;8.50;;;;;17.91;61.15;102274.22;5063237;27;45857;-59
2022/02/01 09:00:24;;;;;;;;;18.50;10.00;;;;;17.90;61.23;102256.34;5080147;27;46840;-58
2022/02/01 09:02:49;;;;;;;;;11.00;6.75;;;;;17.90;61.12;102259.91;5087098;27;45454;-58
2022/02/01 09:05:15;;;;;;;;;12.75;10.75;;;;;17.90;60.96;102250.97;5087098;27;45473;-58
2022/02/01 09:07:40;;;;;;;;;26.75;11.50;;;;;17.90;61.22;102250.97;5085282;27;45458;-58
2022/02/01 09:10:08;;;;;;;;;15.00;11.25;;;;;17.91;61.63;102244.69;5082040;27;45530;-59
2022/02/01 09:12:34;;;;;;;;;11.50;10.50;;;;;17.90;61.47;102250.97;5069992;28;45379;-58
2022/02/01 09:15:00;;;;;;;;;13.25;9.50;;;;;17.89;60.45;102251.94;5070465;28;45415;-59
2022/02/01 09:17:25;;;;;;;;;13.00;10.50;;;;;17.87;61.30;102248.50;5059069;28;45464;-58
2022/02/01 09:19:51;;;;;;;;;14.50;9.75;;;;;17.85;61.12;102243.22;5072554;28;45908;-59
2022/02/01 09:22:17;;;;;;;;;20.75;13.25;;;;;17.84;61.24;102240.63;5060154;28;45383;-59
2022/02/01 09:24:43;;;;;;;;;11.75;6.50;;;;;17.83;61.33;102236.22;5069361;28;45398;-58
2022/02/01 09:27:11;;;;;;;;;12.50;9.25;;;;;17.82;61.68;102231.81;5069565;28;45416;-58
2022/02/01 09:29:37;;;;;;;;;11.00;8.50;;;;;17.80;61.63;102223.84;5063553;28;47377;-58
2022/02/01 09:32:04;;;;;;;;;9.00;7.50;;;;;17.81;61.29;102230.09;5058174;28;45467;-59
2022/02/01 09:34:30;;;;;;;;;16.50;13.50;;;;;17.80;61.50;102233.72;5072995;28;45456;-58
2022/02/01 09:36:57;;;;;;;;;12.25;8.00;;;;;17.80;61.50;102220.28;5069100;28;45913;-59
2022/02/01 09:39:25;;;;;;;;;14.50;9.00;;;;;17.78;61.60;102225.75;5069722;28;50132;-59
2022/02/01 09:41:52;;;;;;;;;15.50;11.50;;;;;17.77;61.46;102213.28;5072388;28;45572;-59
2022/02/01 09:44:20;;;;;;;;;11.00;7.50;;;;;17.77;61.70;102218.66;5058452;28;45534;-59
2022/02/01 09:46:49;;;;;;;;;17.25;11.00;;;;;17.76;61.96;102222.28;5072523;28;45701;-59
2022/02/01 09:49:16;;;;;;;;;11.75;10.50;;;;;17.75;61.41;102218.72;5070558;28;45373;-59
2022/02/01 09:51:42;;;;;;;;;19.00;14.00;;;;;17.75;61.73;102212.53;5069676;28;45562;-59
2022/02/01 09:54:08;;;;;;;;;14.50;11.00;;;;;17.75;61.87;102204.47;5070402;27;45463;-59
2022/02/01 09:56:33;;;;;;;;;25.50;13.25;;;;;17.74;62.14;102208.13;5059941;28;45412;-59
2022/02/01 09:58:59;;;;;;;;;13.50;11.25;;;;;17.73;62.13;102214.41;5057009;28;46265;-59
2022/02/01 10:01:30;;;;;;;;;10.75;8.75;;;;;17.72;61.85;102204.63;5066808;28;45266;-59
2022/02/01 10:04:01;;;;;;;;;12.00;9.75;;;;;17.71;61.77;102203.78;5068310;27;45442;-59
2022/02/01 10:06:29;;;;;;;;;24.00;13.75;;;;;17.72;62.20;102207.31;5062146;28;45542;-59
2022/02/01 10:09:03;;;;;;;;;20.75;13.25;;;;;17.71;62.41;102203.78;5062646;27;47499;-59
2022/02/01 10:11:34;;;;;;;;;14.50;11.50;;;;;17.71;62.35;102214.53;5074696;27;45440;-59
2022/02/01 10:14:02;;;;;;;;;14.25;11.00;;;;;17.70;61.23;102214.63;5070798;28;45470;-58
2022/02/01 10:16:32;;;;;;;;;22.25;13.25;;;;;17.67;61.76;102220.16;5071971;27;45344;-58
2022/02/01 10:19:06;;;;;;;;;12.00;9.75;;;;;17.68;62.38;102216.53;5065962;28;46474;-57
2022/02/01 10:21:31;;;;;;;;;10.25;7.75;;;;;17.70;62.26;102220.00;5066214;28;45547;-57
2022/02/01 10:24:04;;;;;;;;;12.25;8.25;;;;;17.72;61.79;102218.06;5067079;27;49979;-58
2022/02/01 10:26:30;;;;;;;;;9.75;6.75;;;;;17.73;61.99;102209.03;5066506;28;45484;-58
2022/02/01 10:34:03;;;;;;;;;19.25;14.00;;;;;17.83;61.71;102207.56;5069261;28;45483;-57
2022/02/01 10:36:36;;;;;;;;;23.25;14.25;;;;;17.87;62.01;102210.91;5069534;28;45599;-57
2022/02/01 10:39:04;;;;;;;;;21.00;13.75;;;;;17.90;61.65;102200.81;5072050;27;48410;-57
2022/02/01 10:41:30;;;;;;;;;15.50;10.25;;;;;17.95;61.71;102197.88;5072004;28;45576;-58
2022/02/01 10:43:56;;;;;;;;;16.75;13.25;;;;;17.99;61.94;102199.38;5069349;27;45478;-57
2022/02/01 10:46:23;;;;;;;;;11.00;10.50;;;;;18.02;61.21;102198.31;5071767;27;45712;-57
2022/02/01 10:48:53;;;;;;;;;18.75;11.25;;;;;18.04;61.27;102197.25;5069260;27;46319;-57
2022/02/01 10:51:20;;;;;;;;;20.50;10.00;;;;;18.08;62.14;102189.06;5070070;27;45538;-57
2022/02/01 10:53:46;;;;;;;;;23.00;13.00;;;;;18.09;61.41;102183.59;5072417;27;45733;-57
2022/02/01 10:56:14;;;;;;;;;14.75;9.25;;;;;18.11;61.80;102192.41;5062578;28;45529;-57
2022/02/01 10:58:40;;;;;;;;;15.50;11.75;;;;;18.12;61.61;102182.53;5072687;27;45471;-56
2022/02/01 11:01:06;;;;;;;;;19.25;14.00;;;;;18.12;60.99;102169.09;5060005;27;45436;-59
2022/02/01 11:03:32;;;;;;;;;19.25;11.00;;;;;18.13;61.24;102171.69;5066089;28;45745;-59
2022/02/01 11:06:01;;;;;;;;;12.75;12.00;;;;;18.15;60.77;102155.47;5069575;27;45431;-57
2022/02/01 11:08:29;;;;;;;;;17.75;10.75;;;;;18.15;60.97;102153.63;5070667;28;45660;-57
2022/02/01 11:11:00;;;;;;;;;19.75;15.25;;;;;18.17;61.10;102149.03;5071457;27;49227;-57
2022/02/01 11:13:36;;;;;;;;;13.25;9.25;;;;;18.18;60.30;102139.13;5070530;28;45390;-57
2022/02/01 11:16:03;;;;;;;;;23.00;11.25;;;;;18.20;60.76;102129.16;5061537;27;45438;-58
2022/02/01 11:18:30;;;;;;;;;11.50;9.00;;;;;18.21;60.06;102120.13;5058313;28;45336;-58
2022/02/01 11:21:10;;;;;;;;;18.50;9.75;;;;;18.24;60.53;102130.69;5058656;27;48432;-58
2022/02/01 11:26:27;;;;;;;;;14.75;10.50;;;;;18.28;60.47;102118.75;5061695;27;45380;-58
2022/02/01 11:30:01;;;;;;;;;12.75;10.25;;;;;18.30;60.48;102114.16;5067052;27;45469;-57
2022/02/01 11:31:48;;;;;;;;;13.25;12.00;;;;;18.38;60.40;102102.91;5062380;27;45605;-58
2022/02/01 11:34:16;;;;;;;;;13.50;8.00;;;;;18.47;60.35;102108.63;5067978;27;45422;-58
2022/02/01 11:36:44;;;;;;;;;12.50;9.75;;;;;18.53;60.88;102103.72;5068586;28;45464;-57
2022/02/01 11:39:11;;;;;;;;;10.75;9.75;;;;;18.60;60.33;102106.00;5063140;27;46126;-58
2022/02/01 11:41:42;;;;;;;;;13.50;8.75;;;;;18.65;59.61;102114.63;5060295;27;45458;-58
2022/02/01 11:44:09;;;;;;;;;11.75;7.00;;;;;18.69;60.23;102097.31;5061261;28;45379;-58
2022/02/01 11:46:35;;;;;;;;;9.75;8.00;;;;;18.73;60.00;102097.97;5067750;27;45497;-57
2022/02/01 11:49:01;;;;;;;;;13.50;9.75;;;;;18.75;60.06;102104.97;5068038;28;45424;-58
2022/02/01 11:51:28;;;;;;;;;14.00;9.50;;;;;18.78;59.41;102098.50;5065906;27;45412;-57
2022/02/01 11:53:58;;;;;;;;;11.25;6.75;;;;;18.79;60.20;102102.91;5057829;27;48031;-58
2022/02/01 11:56:32;;;;;;;;;9.50;8.00;;;;;18.79;59.44;102101.09;5057243;27;45729;-58
2022/02/01 11:59:00;;;;;;;;;12.25;8.75;;;;;18.79;59.63;102095.72;5062236;28;45487;-58
2022/02/01 12:01:31;;;;;;;;;12.50;8.25;;;;;18.77;59.42;102096.78;5074225;27;45626;-57
2022/02/01 12:04:03;;;;;;;;;9.50;7.00;;;;;18.68;58.57;102093.75;5067302;27;45638;-59
2022/02/01 12:06:39;;;;;;;;;14.75;6.50;;;;;18.62;59.32;102095.97;5067393;27;46040;-58
2022/02/01 12:09:10;;;;;;;;;13.25;10.50;;;;;18.60;59.42;102106.00;5065835;27;45542;-58
2022/02/01 12:11:38;;;;;;;;;15.00;7.00;;;;;18.57;58.92;102110.59;5055798;27;45423;-57
2022/02/01 12:14:04;;;;;;;;;13.75;9.75;;;;;18.55;59.14;102101.78;5061975;27;45631;-58
2022/02/01 12:16:29;;;;;;;;;10.25;7.25;;;;;18.56;60.36;102103.50;5065023;27;46993;-58
2022/02/01 12:19:02;;;;;;;;;13.75;9.50;;;;;18.56;60.59;102086.53;5067904;27;45622;-59
2022/02/01 12:21:41;;;;;;;;;13.25;10.75;;;;;18.56;60.16;102083.84;5072344;27;45411;-58
2022/02/01 12:24:08;;;;;;;;;23.25;12.00;;;;;18.57;60.57;102086.38;5067024;27;45411;-58
2022/02/01 12:26:36;;;;;;;;;25.75;10.50;;;;;18.54;61.08;102078.56;5069271;27;45432;-59
2022/02/01 12:29:04;;;;;;;;;21.25;11.25;;;;;18.56;61.22;102089.22;5064018;28;46478;-59
2022/02/01 12:31:31;;;;;;;;;15.00;10.50;;;;;18.56;60.98;102084.69;5072446;28;45495;-59
2022/02/01 12:34:02;;;;;;;;;19.25;12.00;;;;;18.56;61.41;102075.75;5074616;27;45369;-59
2022/02/01 12:36:35;;;;;;;;;20.25;14.75;;;;;18.56;61.82;102065.84;5066608;27;45482;-56
2022/02/01 12:39:04;;;;;;;;;23.50;14.25;;;;;18.56;61.60;102055.09;5067157;28;47529;-56
2022/02/01 12:41:42;;;;;;;;;16.50;9.75;;;;;18.55;61.72;102050.69;5068480;27;45480;-56
2022/02/01 12:46:44;;;;;;;;;21.50;11.50;;;;;18.55;61.93;102047.13;5059835;27;45511;-56
2022/02/01 12:49:09;;;;;;;;;17.25;12.75;;;;;18.54;62.19;102037.34;5070636;27;46541;-56
2022/02/01 12:51:38;;;;;;;;;17.75;10.50;;;;;18.53;62.06;102039.19;5068472;28;45403;-56